ロメ の空港の天気 - METARとTAF

ロメ空港 ( DXXX / LFW ) - トーゴ ロメ
飛行場実況気象(Metar)
観測時間08/11 06:00 GMT (08/11 06:00 UTC)
風向・風速南西 3m/s
視程8000m
天気現象
少しの雲 雲底高度 270m
気温23℃
湿度94%
気圧1014hPa
METARDXXX 110600Z 22006KT 8000 FEW009 23/22 Q1014 NOSIG
過去の天気等 Google飛行場航空写真 Wunderground天気予報

過去48時間のMETAR

飛行場予報(TAF)
発表時間: 8/11 05:00 GMT (8/11 05:00 UTC)
予報対象時間: 11日6時 GMT ~ 12日12時 GMT
風向・風速南西 5m/s
視程10km以上
全天の4割程度の雲 雲底高度 300m
TAF DXXX 110500Z 1106/1212 22010KT 9999 SCT010